sensor_id;sensor_type;location;lat;lon;timestamp;pressure;altitude;pressure_sealevel;temperature;humidity
42385;BME280;28042;43.986;22.860;2022-08-19T00:02:21;100616.72;;;23.13;58.12
42385;BME280;28042;43.986;22.860;2022-08-19T00:04:46;100619.22;;;23.15;57.82
42385;BME280;28042;43.986;22.860;2022-08-19T00:07:15;100611.41;;;23.17;58.06
42385;BME280;28042;43.986;22.860;2022-08-19T00:09:40;100609.75;;;23.16;57.82
42385;BME280;28042;43.986;22.860;2022-08-19T00:12:05;100616.69;;;23.19;58.22
42385;BME280;28042;43.986;22.860;2022-08-19T00:14:31;100613.66;;;23.15;58.31
42385;BME280;28042;43.986;22.860;2022-08-19T00:16:56;100617.84;;;23.12;58.45
42385;BME280;28042;43.986;22.860;2022-08-19T00:19:22;100610.31;;;23.13;58.22
42385;BME280;28042;43.986;22.860;2022-08-19T00:21:48;100605.28;;;23.20;58.20
42385;BME280;28042;43.986;22.860;2022-08-19T00:24:14;100601.94;;;23.18;58.33
42385;BME280;28042;43.986;22.860;2022-08-19T00:26:40;100594.69;;;23.22;58.63
42385;BME280;28042;43.986;22.860;2022-08-19T00:29:06;100601.38;;;23.21;58.39
42385;BME280;28042;43.986;22.860;2022-08-19T00:31:32;100609.16;;;23.19;58.97
42385;BME280;28042;43.986;22.860;2022-08-19T00:33:58;100613.06;;;23.18;58.63
42385;BME280;28042;43.986;22.860;2022-08-19T00:36:24;100601.69;;;23.15;58.97
42385;BME280;28042;43.986;22.860;2022-08-19T00:38:49;100604.22;;;23.06;59.14
42385;BME280;28042;43.986;22.860;2022-08-19T00:41:17;100595.31;;;23.04;59.30
42385;BME280;28042;43.986;22.860;2022-08-19T00:46:24;100602.03;;;22.98;59.81
42385;BME280;28042;43.986;22.860;2022-08-19T00:48:49;100609.00;;;22.90;59.91
42385;BME280;28042;43.986;22.860;2022-08-19T00:51:14;100614.81;;;22.83;59.79
42385;BME280;28042;43.986;22.860;2022-08-19T00:53:40;100610.94;;;22.79;59.69
42385;BME280;28042;43.986;22.860;2022-08-19T00:56:05;100614.28;;;22.76;59.96
42385;BME280;28042;43.986;22.860;2022-08-19T00:58:32;100613.47;;;22.71;59.92
42385;BME280;28042;43.986;22.860;2022-08-19T01:00:58;100622.91;;;22.70;60.13
42385;BME280;28042;43.986;22.860;2022-08-19T01:03:24;100620.13;;;22.70;60.64
42385;BME280;28042;43.986;22.860;2022-08-19T01:05:49;100618.75;;;22.57;60.92
42385;BME280;28042;43.986;22.860;2022-08-19T01:08:16;100618.47;;;22.48;61.37
42385;BME280;28042;43.986;22.860;2022-08-19T01:10:43;100613.75;;;22.44;61.42
42385;BME280;28042;43.986;22.860;2022-08-19T01:13:09;100610.16;;;22.28;61.89
42385;BME280;28042;43.986;22.860;2022-08-19T01:15:40;100613.47;;;22.20;62.28
42385;BME280;28042;43.986;22.860;2022-08-19T01:18:08;100617.66;;;22.22;62.25
42385;BME280;28042;43.986;22.860;2022-08-19T01:20:34;100619.31;;;22.23;62.14
42385;BME280;28042;43.986;22.860;2022-08-19T01:23:00;100612.09;;;22.12;62.55
42385;BME280;28042;43.986;22.860;2022-08-19T01:25:33;100610.97;;;22.08;62.61
42385;BME280;28042;43.986;22.860;2022-08-19T01:28:00;100616.81;;;22.12;62.83
42385;BME280;28042;43.986;22.860;2022-08-19T01:30:29;100618.78;;;22.16;62.49
42385;BME280;28042;43.986;22.860;2022-08-19T01:32:56;100614.56;;;22.14;62.62
42385;BME280;28042;43.986;22.860;2022-08-19T01:35:22;100614.88;;;22.12;62.52
42385;BME280;28042;43.986;22.860;2022-08-19T01:37:53;100620.13;;;22.14;62.67
42385;BME280;28042;43.986;22.860;2022-08-19T01:40:19;100620.94;;;22.04;62.91
42385;BME280;28042;43.986;22.860;2022-08-19T01:42:46;100617.59;;;21.82;63.62
42385;BME280;28042;43.986;22.860;2022-08-19T01:45:12;100619.78;;;21.80;63.85
42385;BME280;28042;43.986;22.860;2022-08-19T01:47:38;100618.13;;;21.84;63.96
42385;BME280;28042;43.986;22.860;2022-08-19T01:50:04;100611.19;;;21.86;63.98
42385;BME280;28042;43.986;22.860;2022-08-19T01:52:30;100612.84;;;21.77;64.22
42385;BME280;28042;43.986;22.860;2022-08-19T01:54:56;100616.44;;;21.67;64.68
42385;BME280;28042;43.986;22.860;2022-08-19T01:57:21;100613.63;;;21.62;65.01
42385;BME280;28042;43.986;22.860;2022-08-19T01:59:46;100614.19;;;21.59;65.17
42385;BME280;28042;43.986;22.860;2022-08-19T02:02:12;100621.94;;;21.57;65.23
42385;BME280;28042;43.986;22.860;2022-08-19T02:04:37;100619.69;;;21.54;65.56
42385;BME280;28042;43.986;22.860;2022-08-19T02:07:03;100630.78;;;21.44;65.73
42385;BME280;28042;43.986;22.860;2022-08-19T02:09:30;100621.34;;;21.40;65.95
42385;BME280;28042;43.986;22.860;2022-08-19T02:11:55;100624.38;;;21.38;65.67
42385;BME280;28042;43.986;22.860;2022-08-19T02:14:21;100621.84;;;21.37;65.78
42385;BME280;28042;43.986;22.860;2022-08-19T02:16:46;100620.78;;;21.38;66.06
42385;BME280;28042;43.986;22.860;2022-08-19T02:19:11;100623.53;;;21.33;66.46
42385;BME280;28042;43.986;22.860;2022-08-19T02:21:37;100629.63;;;21.30;67.17
42385;BME280;28042;43.986;22.860;2022-08-19T02:24:02;100631.28;;;21.31;67.29
42385;BME280;28042;43.986;22.860;2022-08-19T02:26:28;100631.22;;;21.26;67.55
42385;BME280;28042;43.986;22.860;2022-08-19T02:28:53;100638.16;;;21.23;67.81
42385;BME280;28042;43.986;22.860;2022-08-19T02:31:20;100635.41;;;21.28;67.61
42385;BME280;28042;43.986;22.860;2022-08-19T02:33:46;100636.84;;;21.31;67.71
42385;BME280;28042;43.986;22.860;2022-08-19T02:36:12;100637.94;;;21.30;67.73
42385;BME280;28042;43.986;22.860;2022-08-19T02:38:38;100644.84;;;21.27;67.85
42385;BME280;28042;43.986;22.860;2022-08-19T02:41:06;100643.41;;;21.20;68.43
42385;BME280;28042;43.986;22.860;2022-08-19T02:43:33;100641.16;;;21.11;68.63
42385;BME280;28042;43.986;22.860;2022-08-19T02:46:10;100650.03;;;21.13;68.61
42385;BME280;28042;43.986;22.860;2022-08-19T02:48:36;100652.25;;;21.11;68.64
42385;BME280;28042;43.986;22.860;2022-08-19T02:51:01;100661.97;;;21.14;68.35
42385;BME280;28042;43.986;22.860;2022-08-19T02:53:27;100662.81;;;21.14;68.18
42385;BME280;28042;43.986;22.860;2022-08-19T02:55:52;100665.84;;;21.13;68.43
42385;BME280;28042;43.986;22.860;2022-08-19T02:58:18;100666.97;;;21.17;68.23
42385;BME280;28042;43.986;22.860;2022-08-19T03:00:45;100675.06;;;21.24;67.98
42385;BME280;28042;43.986;22.860;2022-08-19T03:03:10;100675.13;;;21.29;67.71
42385;BME280;28042;43.986;22.860;2022-08-19T03:05:36;100679.31;;;21.31;67.53
42385;BME280;28042;43.986;22.860;2022-08-19T03:08:01;100669.88;;;21.32;67.43
42385;BME280;28042;43.986;22.860;2022-08-19T03:10:26;100676.81;;;21.30;67.39
42385;BME280;28042;43.986;22.860;2022-08-19T03:12:52;100680.94;;;21.27;67.43
42385;BME280;28042;43.986;22.860;2022-08-19T03:15:17;100680.09;;;21.27;67.44
42385;BME280;28042;43.986;22.860;2022-08-19T03:17:42;100684.84;;;21.31;67.34
42385;BME280;28042;43.986;22.860;2022-08-19T03:20:08;100689.03;;;21.34;67.26
42385;BME280;28042;43.986;22.860;2022-08-19T03:22:33;100688.72;;;21.30;67.46
42385;BME280;28042;43.986;22.860;2022-08-19T03:24:58;100693.28;;;21.09;68.34
42385;BME280;28042;43.986;22.860;2022-08-19T03:27:24;100691.59;;;21.08;68.59
42385;BME280;28042;43.986;22.860;2022-08-19T03:29:49;100697.72;;;21.10;68.41
42385;BME280;28042;43.986;22.860;2022-08-19T03:32:15;100699.09;;;21.08;68.44
42385;BME280;28042;43.986;22.860;2022-08-19T03:34:41;100699.38;;;21.06;68.45
42385;BME280;28042;43.986;22.860;2022-08-19T03:37:08;100694.88;;;20.95;69.01
42385;BME280;28042;43.986;22.860;2022-08-19T03:39:35;100705.38;;;20.93;69.08
42385;BME280;28042;43.986;22.860;2022-08-19T03:42:01;100698.19;;;20.97;68.95
42385;BME280;28042;43.986;22.860;2022-08-19T03:44:27;100696.03;;;21.04;68.80
42385;BME280;28042;43.986;22.860;2022-08-19T03:46:54;100703.25;;;21.05;68.68
42385;BME280;28042;43.986;22.860;2022-08-19T03:49:20;100701.03;;;21.07;68.56
42385;BME280;28042;43.986;22.860;2022-08-19T03:51:47;100708.81;;;21.10;68.40
42385;BME280;28042;43.986;22.860;2022-08-19T03:54:13;100707.22;;;21.20;68.34
42385;BME280;28042;43.986;22.860;2022-08-19T03:56:40;100711.09;;;21.18;68.17
42385;BME280;28042;43.986;22.860;2022-08-19T03:59:07;100719.41;;;21.18;68.11
42385;BME280;28042;43.986;22.860;2022-08-19T04:01:32;100725.44;;;21.05;68.63
42385;BME280;28042;43.986;22.860;2022-08-19T04:03:58;100731.59;;;21.12;68.71
42385;BME280;28042;43.986;22.860;2022-08-19T04:06:25;100725.50;;;21.15;68.61
42385;BME280;28042;43.986;22.860;2022-08-19T04:08:51;100729.38;;;21.14;68.99
42385;BME280;28042;43.986;22.860;2022-08-19T04:11:20;100732.84;;;21.32;68.46
42385;BME280;28042;43.986;22.860;2022-08-19T04:13:46;100731.81;;;21.43;68.57
42385;BME280;28042;43.986;22.860;2022-08-19T04:16:11;100733.53;;;21.54;68.04
42385;BME280;28042;43.986;22.860;2022-08-19T04:18:37;100739.78;;;21.82;67.43
42385;BME280;28042;43.986;22.860;2022-08-19T04:21:03;100741.00;;;22.11;66.45
42385;BME280;28042;43.986;22.860;2022-08-19T04:23:29;100748.31;;;22.48;65.34
42385;BME280;28042;43.986;22.860;2022-08-19T04:25:54;100752.22;;;22.67;64.40
42385;BME280;28042;43.986;22.860;2022-08-19T04:28:20;100739.75;;;22.95;63.43
42385;BME280;28042;43.986;22.860;2022-08-19T04:30:47;100745.03;;;22.97;63.22
42385;BME280;28042;43.986;22.860;2022-08-19T04:33:13;100741.97;;;22.88;63.58
42385;BME280;28042;43.986;22.860;2022-08-19T04:35:41;100741.16;;;23.03;63.14
42385;BME280;28042;43.986;22.860;2022-08-19T04:38:07;100742.75;;;23.39;61.93
42385;BME280;28042;43.986;22.860;2022-08-19T04:40:32;100739.34;;;23.68;60.81
42385;BME280;28042;43.986;22.860;2022-08-19T04:43:16;100757.66;;;23.84;60.49
42385;BME280;28042;43.986;22.860;2022-08-19T04:45:42;100755.88;;;24.09;59.41
42385;BME280;28042;43.986;22.860;2022-08-19T04:48:08;100754.13;;;24.33;58.71
42385;BME280;28042;43.986;22.860;2022-08-19T04:50:34;100748.16;;;24.45;58.16
42385;BME280;28042;43.986;22.860;2022-08-19T04:53:00;100748.97;;;24.50;58.07
42385;BME280;28042;43.986;22.860;2022-08-19T04:55:25;100744.78;;;24.53;58.31
42385;BME280;28042;43.986;22.860;2022-08-19T04:57:50;100746.53;;;24.78;57.56
42385;BME280;28042;43.986;22.860;2022-08-19T05:00:16;100747.38;;;25.13;56.58
42385;BME280;28042;43.986;22.860;2022-08-19T05:02:41;100742.19;;;25.54;55.40
42385;BME280;28042;43.986;22.860;2022-08-19T05:05:07;100744.44;;;25.81;54.35
42385;BME280;28042;43.986;22.860;2022-08-19T05:07:33;100741.63;;;25.81;54.10
42385;BME280;28042;43.986;22.860;2022-08-19T05:09:58;100738.53;;;25.82;54.31
42385;BME280;28042;43.986;22.860;2022-08-19T05:12:23;100735.00;;;25.96;53.91
42385;BME280;28042;43.986;22.860;2022-08-19T05:14:49;100738.34;;;26.16;53.61
42385;BME280;28042;43.986;22.860;2022-08-19T05:17:15;100737.94;;;26.47;52.39
42385;BME280;28042;43.986;22.860;2022-08-19T05:19:40;100739.50;;;26.72;51.79
42385;BME280;28042;43.986;22.860;2022-08-19T05:22:24;100738.50;;;27.14;50.73
42385;BME280;28042;43.986;22.860;2022-08-19T05:25:05;100736.38;;;27.52;49.13
42385;BME280;28042;43.986;22.860;2022-08-19T05:27:30;100737.69;;;27.74;49.29
42385;BME280;28042;43.986;22.860;2022-08-19T05:29:56;100730.38;;;27.59;49.01
42385;BME280;28042;43.986;22.860;2022-08-19T05:32:21;100732.44;;;27.95;48.39
42385;BME280;28042;43.986;22.860;2022-08-19T05:34:48;100735.94;;;28.28;47.10
42385;BME280;28042;43.986;22.860;2022-08-19T05:37:14;100733.97;;;28.42;46.99
42385;BME280;28042;43.986;22.860;2022-08-19T05:39:39;100715.75;;;28.84;46.02
42385;BME280;28042;43.986;22.860;2022-08-19T05:42:09;100728.34;;;29.09;45.55
42385;BME280;28042;43.986;22.860;2022-08-19T05:44:36;100728.44;;;29.26;45.29
42385;BME280;28042;43.986;22.860;2022-08-19T05:47:02;100729.16;;;29.10;45.81
42385;BME280;28042;43.986;22.860;2022-08-19T05:49:29;100734.38;;;29.25;45.56
42385;BME280;28042;43.986;22.860;2022-08-19T05:51:55;100732.81;;;28.88;46.75
42385;BME280;28042;43.986;22.860;2022-08-19T05:54:21;100728.00;;;29.33;45.65
42385;BME280;28042;43.986;22.860;2022-08-19T05:56:48;100727.44;;;29.53;45.56
42385;BME280;28042;43.986;22.860;2022-08-19T05:59:14;100736.47;;;29.42;46.14
42385;BME280;28042;43.986;22.860;2022-08-19T06:01:41;100730.97;;;29.68;45.36
42385;BME280;28042;43.986;22.860;2022-08-19T06:04:07;100735.41;;;29.60;45.25
42385;BME280;28042;43.986;22.860;2022-08-19T06:06:33;100734.88;;;29.27;46.32
42385;BME280;28042;43.986;22.860;2022-08-19T06:09:00;100739.09;;;29.38;46.21
42385;BME280;28042;43.986;22.860;2022-08-19T06:11:33;100738.84;;;30.05;45.08
42385;BME280;28042;43.986;22.860;2022-08-19T06:14:00;100740.91;;;30.48;44.39
42385;BME280;28042;43.986;22.860;2022-08-19T06:16:26;100747.53;;;29.78;45.73
42385;BME280;28042;43.986;22.860;2022-08-19T06:18:53;100734.97;;;30.24;44.99
42385;BME280;28042;43.986;22.860;2022-08-19T06:21:19;100747.41;;;30.66;44.19
42385;BME280;28042;43.986;22.860;2022-08-19T06:23:45;100737.63;;;30.81;43.47
42385;BME280;28042;43.986;22.860;2022-08-19T06:26:12;100742.94;;;30.74;43.68
42385;BME280;28042;43.986;22.860;2022-08-19T06:28:38;100744.41;;;30.45;44.42
42385;BME280;28042;43.986;22.860;2022-08-19T06:31:08;100744.22;;;29.67;45.88
42385;BME280;28042;43.986;22.860;2022-08-19T06:33:33;100751.84;;;29.44;46.79
42385;BME280;28042;43.986;22.860;2022-08-19T06:35:58;100749.66;;;29.64;46.90
42385;BME280;28042;43.986;22.860;2022-08-19T06:38:24;100760.16;;;29.80;47.03
42385;BME280;28042;43.986;22.860;2022-08-19T06:40:49;100759.38;;;29.97;46.64
42385;BME280;28042;43.986;22.860;2022-08-19T06:43:15;100762.19;;;30.06;45.98
42385;BME280;28042;43.986;22.860;2022-08-19T06:45:40;100751.81;;;29.67;46.42
42385;BME280;28042;43.986;22.860;2022-08-19T06:48:06;100758.09;;;29.10;47.76
42385;BME280;28042;43.986;22.860;2022-08-19T06:50:32;100766.28;;;28.98;48.50
42385;BME280;28042;43.986;22.860;2022-08-19T06:52:57;100762.88;;;29.10;48.22
42385;BME280;28042;43.986;22.860;2022-08-19T06:55:23;100762.81;;;29.23;48.78
42385;BME280;28042;43.986;22.860;2022-08-19T06:57:48;100760.44;;;29.39;48.33
42385;BME280;28042;43.986;22.860;2022-08-19T07:00:18;100762.94;;;29.72;47.02
42385;BME280;28042;43.986;22.860;2022-08-19T07:02:43;100763.47;;;29.82;47.36
42385;BME280;28042;43.986;22.860;2022-08-19T07:05:09;100768.66;;;30.06;46.50
42385;BME280;28042;43.986;22.860;2022-08-19T07:07:34;100764.06;;;29.71;46.11
42385;BME280;28042;43.986;22.860;2022-08-19T07:10:00;100767.91;;;29.75;46.87
42385;BME280;28042;43.986;22.860;2022-08-19T07:12:27;100768.94;;;29.96;45.97
42385;BME280;28042;43.986;22.860;2022-08-19T07:14:53;100766.50;;;30.03;45.89
42385;BME280;28042;43.986;22.860;2022-08-19T07:17:18;100769.03;;;30.14;46.42
42385;BME280;28042;43.986;22.860;2022-08-19T07:19:45;100772.03;;;30.17;45.11
42385;BME280;28042;43.986;22.860;2022-08-19T07:22:10;100769.69;;;30.10;45.04
42385;BME280;28042;43.986;22.860;2022-08-19T07:24:36;100764.78;;;29.85;45.73
42385;BME280;28042;43.986;22.860;2022-08-19T07:27:03;100775.06;;;29.90;45.46
42385;BME280;28042;43.986;22.860;2022-08-19T07:29:30;100759.47;;;29.75;46.02
42385;BME280;28042;43.986;22.860;2022-08-19T07:31:56;100765.41;;;29.42;46.99
42385;BME280;28042;43.986;22.860;2022-08-19T07:34:22;100761.44;;;29.74;47.40
42385;BME280;28042;43.986;22.860;2022-08-19T07:36:48;100763.00;;;29.89;46.15
42385;BME280;28042;43.986;22.860;2022-08-19T07:39:16;100762.78;;;29.77;45.85
42385;BME280;28042;43.986;22.860;2022-08-19T07:41:41;100756.34;;;29.85;46.14
42385;BME280;28042;43.986;22.860;2022-08-19T07:44:07;100764.28;;;29.83;45.76
42385;BME280;28042;43.986;22.860;2022-08-19T07:46:34;100758.00;;;29.86;45.30
42385;BME280;28042;43.986;22.860;2022-08-19T07:49:00;100757.56;;;30.01;45.21
42385;BME280;28042;43.986;22.860;2022-08-19T07:51:26;100763.41;;;30.14;44.99
42385;BME280;28042;43.986;22.860;2022-08-19T07:53:51;100761.75;;;30.13;45.27
42385;BME280;28042;43.986;22.860;2022-08-19T07:56:18;100754.34;;;30.34;45.42
42385;BME280;28042;43.986;22.860;2022-08-19T07:58:45;100764.78;;;30.59;45.81
42385;BME280;28042;43.986;22.860;2022-08-19T08:01:12;100758.66;;;30.92;44.79
42385;BME280;28042;43.986;22.860;2022-08-19T08:03:38;100752.50;;;31.25;43.71
42385;BME280;28042;43.986;22.860;2022-08-19T08:06:21;100755.50;;;31.02;42.51
42385;BME280;28042;43.986;22.860;2022-08-19T08:09:05;100747.59;;;30.78;43.40
42385;BME280;28042;43.986;22.860;2022-08-19T08:11:41;100752.03;;;30.62;43.58
42385;BME280;28042;43.986;22.860;2022-08-19T08:14:07;100744.56;;;30.92;43.60
42385;BME280;28042;43.986;22.860;2022-08-19T08:16:34;100752.19;;;31.00;43.13
42385;BME280;28042;43.986;22.860;2022-08-19T08:19:00;100736.44;;;30.99;42.86
42385;BME280;28042;43.986;22.860;2022-08-19T08:21:25;100731.94;;;31.15;42.11
42385;BME280;28042;43.986;22.860;2022-08-19T08:23:50;100735.91;;;31.32;42.22
42385;BME280;28042;43.986;22.860;2022-08-19T08:26:18;100733.78;;;31.58;42.60
42385;BME280;28042;43.986;22.860;2022-08-19T08:28:43;100738.75;;;31.61;42.47
42385;BME280;28042;43.986;22.860;2022-08-19T08:31:09;100734.06;;;31.74;40.86
42385;BME280;28042;43.986;22.860;2022-08-19T08:33:35;100731.19;;;31.91;40.80
42385;BME280;28042;43.986;22.860;2022-08-19T08:36:02;100724.41;;;31.84;40.55
42385;BME280;28042;43.986;22.860;2022-08-19T08:38:29;100722.44;;;31.75;40.89
42385;BME280;28042;43.986;22.860;2022-08-19T08:40:58;100728.94;;;31.76;40.80
42385;BME280;28042;43.986;22.860;2022-08-19T08:43:35;100722.75;;;31.83;40.09
42385;BME280;28042;43.986;22.860;2022-08-19T08:46:06;100723.19;;;31.93;40.47
42385;BME280;28042;43.986;22.860;2022-08-19T08:51:12;100712.34;;;32.25;40.54
42385;BME280;28042;43.986;22.860;2022-08-19T08:53:40;100709.78;;;32.41;39.87
42385;BME280;28042;43.986;22.860;2022-08-19T08:56:07;100706.84;;;32.70;39.29
42385;BME280;28042;43.986;22.860;2022-08-19T08:58:36;100708.03;;;32.81;38.97
42385;BME280;28042;43.986;22.860;2022-08-19T09:01:07;100714.25;;;32.75;38.99
42385;BME280;28042;43.986;22.860;2022-08-19T09:03:33;100715.50;;;32.65;38.03
42385;BME280;28042;43.986;22.860;2022-08-19T09:08:47;100699.41;;;32.99;38.43
42385;BME280;28042;43.986;22.860;2022-08-19T09:11:11;100691.94;;;33.27;37.75
42385;BME280;28042;43.986;22.860;2022-08-19T09:16:31;100694.06;;;33.30;36.69
42385;BME280;28042;43.986;22.860;2022-08-19T09:18:58;100694.25;;;33.46;37.06
42385;BME280;28042;43.986;22.860;2022-08-19T09:21:26;100687.16;;;33.77;36.36
42385;BME280;28042;43.986;22.860;2022-08-19T09:23:52;100691.94;;;33.27;35.82
42385;BME280;28042;43.986;22.860;2022-08-19T09:26:19;100687.44;;;33.14;36.08
42385;BME280;28042;43.986;22.860;2022-08-19T09:28:45;100684.63;;;33.26;36.13
42385;BME280;28042;43.986;22.860;2022-08-19T09:31:14;100681.63;;;33.56;35.73
42385;BME280;28042;43.986;22.860;2022-08-19T09:33:40;100677.16;;;33.91;35.87
42385;BME280;28042;43.986;22.860;2022-08-19T09:36:09;100675.22;;;34.08;35.12
42385;BME280;28042;43.986;22.860;2022-08-19T09:38:35;100672.63;;;34.03;35.13
42385;BME280;28042;43.986;22.860;2022-08-19T09:41:04;100672.94;;;34.25;34.01
42385;BME280;28042;43.986;22.860;2022-08-19T09:43:30;100662.97;;;34.32;34.38
42385;BME280;28042;43.986;22.860;2022-08-19T09:45:56;100671.56;;;34.47;34.99
42385;BME280;28042;43.986;22.860;2022-08-19T09:48:21;100658.59;;;34.46;34.43
42385;BME280;28042;43.986;22.860;2022-08-19T09:50:46;100660.28;;;34.23;34.39
42385;BME280;28042;43.986;22.860;2022-08-19T09:53:12;100657.00;;;34.21;34.47
42385;BME280;28042;43.986;22.860;2022-08-19T09:55:41;100668.03;;;34.10;35.09
42385;BME280;28042;43.986;22.860;2022-08-19T09:58:07;100657.69;;;34.30;34.53
42385;BME280;28042;43.986;22.860;2022-08-19T10:00:32;100662.38;;;34.38;34.00
42385;BME280;28042;43.986;22.860;2022-08-19T10:02:58;100663.34;;;34.42;33.95
42385;BME280;28042;43.986;22.860;2022-08-19T10:05:24;100654.84;;;34.30;33.62
42385;BME280;28042;43.986;22.860;2022-08-19T10:08:08;100656.22;;;34.48;33.28
42385;BME280;28042;43.986;22.860;2022-08-19T10:10:37;100656.56;;;34.75;33.73
42385;BME280;28042;43.986;22.860;2022-08-19T10:13:02;100646.94;;;34.92;33.46
42385;BME280;28042;43.986;22.860;2022-08-19T10:15:29;100648.34;;;35.13;33.06
42385;BME280;28042;43.986;22.860;2022-08-19T10:17:54;100643.50;;;35.46;32.30
42385;BME280;28042;43.986;22.860;2022-08-19T10:20:20;100643.41;;;35.10;32.95
42385;BME280;28042;43.986;22.860;2022-08-19T10:22:46;100639.00;;;34.97;31.62
42385;BME280;28042;43.986;22.860;2022-08-19T10:25:11;100639.75;;;34.82;32.77
42385;BME280;28042;43.986;22.860;2022-08-19T10:27:41;100642.41;;;34.75;32.67
42385;BME280;28042;43.986;22.860;2022-08-19T10:30:07;100628.78;;;34.80;32.58
42385;BME280;28042;43.986;22.860;2022-08-19T10:32:34;100627.38;;;35.02;32.44
42385;BME280;28042;43.986;22.860;2022-08-19T10:34:59;100631.75;;;35.16;32.86
42385;BME280;28042;43.986;22.860;2022-08-19T10:37:24;100623.91;;;35.25;32.64
42385;BME280;28042;43.986;22.860;2022-08-19T10:39:50;100627.19;;;35.27;32.45
42385;BME280;28042;43.986;22.860;2022-08-19T10:42:15;100621.63;;;35.46;31.50
42385;BME280;28042;43.986;22.860;2022-08-19T10:44:42;100614.16;;;35.73;32.04
42385;BME280;28042;43.986;22.860;2022-08-19T10:47:07;100609.47;;;35.81;31.83
42385;BME280;28042;43.986;22.860;2022-08-19T10:49:32;100606.72;;;35.68;33.07
42385;BME280;28042;43.986;22.860;2022-08-19T10:52:17;100606.69;;;35.84;32.42
42385;BME280;28042;43.986;22.860;2022-08-19T10:54:59;100607.09;;;36.21;31.23
42385;BME280;28042;43.986;22.860;2022-08-19T10:57:43;100608.19;;;36.33;30.89
42385;BME280;28042;43.986;22.860;2022-08-19T11:00:08;100605.13;;;36.41;30.27
42385;BME280;28042;43.986;22.860;2022-08-19T11:02:34;100599.66;;;36.52;30.19
42385;BME280;28042;43.986;22.860;2022-08-19T11:04:59;100596.81;;;36.33;29.60
42385;BME280;28042;43.986;22.860;2022-08-19T11:07:24;100586.50;;;36.24;30.53
42385;BME280;28042;43.986;22.860;2022-08-19T11:09:51;100589.16;;;36.56;30.13
42385;BME280;28042;43.986;22.860;2022-08-19T11:12:16;100589.28;;;36.63;29.88
42385;BME280;28042;43.986;22.860;2022-08-19T11:14:42;100580.47;;;36.68;28.50
42385;BME280;28042;43.986;22.860;2022-08-19T11:17:07;100579.75;;;36.75;28.39
42385;BME280;28042;43.986;22.860;2022-08-19T11:19:33;100578.97;;;36.97;28.71
42385;BME280;28042;43.986;22.860;2022-08-19T11:21:58;100570.50;;;37.01;28.16
42385;BME280;28042;43.986;22.860;2022-08-19T11:24:27;100574.66;;;37.07;27.67
42385;BME280;28042;43.986;22.860;2022-08-19T11:26:53;100575.00;;;37.02;27.32
42385;BME280;28042;43.986;22.860;2022-08-19T11:29:24;100576.38;;;36.89;27.77
42385;BME280;28042;43.986;22.860;2022-08-19T11:31:52;100562.69;;;36.75;28.66
42385;BME280;28042;43.986;22.860;2022-08-19T11:34:20;100572.06;;;36.75;28.62
42385;BME280;28042;43.986;22.860;2022-08-19T11:36:46;100564.06;;;37.04;27.67
42385;BME280;28042;43.986;22.860;2022-08-19T11:39:13;100561.66;;;37.06;26.98
42385;BME280;28042;43.986;22.860;2022-08-19T11:41:40;100552.84;;;36.92;27.46
42385;BME280;28042;43.986;22.860;2022-08-19T11:44:05;100553.81;;;37.26;26.97
42385;BME280;28042;43.986;22.860;2022-08-19T11:46:33;100552.16;;;37.21;25.72
42385;BME280;28042;43.986;22.860;2022-08-19T11:48:59;100552.84;;;37.38;24.99
42385;BME280;28042;43.986;22.860;2022-08-19T11:51:26;100545.69;;;37.24;24.97
42385;BME280;28042;43.986;22.860;2022-08-19T11:53:52;100553.00;;;37.25;25.13
42385;BME280;28042;43.986;22.860;2022-08-19T11:56:18;100559.59;;;37.29;25.36
42385;BME280;28042;43.986;22.860;2022-08-19T11:58:43;100548.28;;;37.33;24.56
42385;BME280;28042;43.986;22.860;2022-08-19T12:01:10;100545.09;;;37.12;23.50
42385;BME280;28042;43.986;22.860;2022-08-19T12:03:40;100537.41;;;37.16;24.23
42385;BME280;28042;43.986;22.860;2022-08-19T12:06:06;100537.13;;;37.24;23.28
42385;BME280;28042;43.986;22.860;2022-08-19T12:08:32;100535.72;;;37.64;23.23
42385;BME280;28042;43.986;22.860;2022-08-19T12:10:58;100523.78;;;37.81;22.63
42385;BME280;28042;43.986;22.860;2022-08-19T12:13:26;100526.94;;;37.76;23.38
42385;BME280;28042;43.986;22.860;2022-08-19T12:15:51;100519.16;;;37.73;23.21
42385;BME280;28042;43.986;22.860;2022-08-19T12:18:20;100524.91;;;37.47;24.48
42385;BME280;28042;43.986;22.860;2022-08-19T12:20:45;100518.34;;;37.43;23.96
42385;BME280;28042;43.986;22.860;2022-08-19T12:23:12;100511.44;;;37.74;23.87
42385;BME280;28042;43.986;22.860;2022-08-19T12:25:42;100506.56;;;37.74;24.43
42385;BME280;28042;43.986;22.860;2022-08-19T12:28:13;100500.91;;;38.08;23.51
42385;BME280;28042;43.986;22.860;2022-08-19T12:30:38;100497.06;;;37.63;23.05
42385;BME280;28042;43.986;22.860;2022-08-19T12:33:04;100499.19;;;37.40;23.48
42385;BME280;28042;43.986;22.860;2022-08-19T12:35:29;100501.66;;;37.71;23.41
42385;BME280;28042;43.986;22.860;2022-08-19T12:37:55;100497.31;;;37.51;23.50
42385;BME280;28042;43.986;22.860;2022-08-19T12:40:20;100500.69;;;37.60;22.68
42385;BME280;28042;43.986;22.860;2022-08-19T12:42:46;100499.16;;;37.70;22.21
42385;BME280;28042;43.986;22.860;2022-08-19T12:45:12;100500.19;;;37.81;22.67
42385;BME280;28042;43.986;22.860;2022-08-19T12:47:38;100492.31;;;38.04;22.58
42385;BME280;28042;43.986;22.860;2022-08-19T12:50:04;100490.72;;;38.07;22.08